Nome の空港の天気 - METARとTAF

Nome, Nome Airport ( PAOM / OME ) - アメリカ アラスカ州Nome
飛行場実況気象(Metar)
観測時間05/28 15:53 AKDT (05/28 23:53 UTC)
風向・風速西南西 5m/s
視程10km以上
天気現象
全天を覆う雲 雲底高度 120m
気温2.8℃
湿度85%
気圧1018.3hPa
METARPAOM 282353Z 24009KT 10SM OVC004 03/01 A3007 RMK AO2 SLP183 T00280006 10028 20011 50000
過去の天気等 Google飛行場航空写真 Wunderground天気予報

過去48時間のMETAR

飛行場予報(TAF)
発表時間: 5/28 15:20 AKDT (5/28 23:20 UTC)
予報対象時間: 28日16時 AKDT ~ 29日16時 AKDT
風向・風速西南西 4m/s
視程10km以上
全天を覆う雲 雲底高度 150m
28日17時 AKDT から
風向・風速北西 3m/s
視程10km以上
全天の4割程度の雲 雲底高度 300m
29日10時 AKDT から
風向・風速北 2m/s
視程10km以上
全天の4割程度の雲 雲底高度 7620m
PAOM 282320Z 2900/2924 24008KT P6SM OVC005
FM290100 31006KT P6SM SCT010
FM291800 01004KT P6SM SCT250